sensor_id;sensor_type;location;lat;lon;timestamp;P1;durP1;ratioP1;P2;durP2;ratioP2
61741;SDS011;47650;49.848;9.620;2023-09-19T00:01:45;1.50;;;0.80;;
61741;SDS011;47650;49.848;9.620;2023-09-19T00:04:12;3.50;;;1.10;;
61741;SDS011;47650;49.848;9.620;2023-09-19T00:06:37;1.45;;;0.98;;
61741;SDS011;47650;49.848;9.620;2023-09-19T00:09:04;1.48;;;1.25;;
61741;SDS011;47650;49.848;9.620;2023-09-19T00:11:29;2.67;;;1.10;;
61741;SDS011;47650;49.848;9.620;2023-09-19T00:13:59;2.05;;;1.20;;
61741;SDS011;47650;49.848;9.620;2023-09-19T00:16:27;2.30;;;1.13;;
61741;SDS011;47650;49.848;9.620;2023-09-19T00:18:52;1.80;;;1.20;;
61741;SDS011;47650;49.848;9.620;2023-09-19T00:21:21;2.67;;;1.20;;
61741;SDS011;47650;49.848;9.620;2023-09-19T00:23:47;1.88;;;1.10;;
61741;SDS011;47650;49.848;9.620;2023-09-19T00:26:19;2.50;;;1.17;;
61741;SDS011;47650;49.848;9.620;2023-09-19T00:28:46;2.15;;;0.90;;
61741;SDS011;47650;49.848;9.620;2023-09-19T00:31:11;1.60;;;1.30;;
61741;SDS011;47650;49.848;9.620;2023-09-19T00:33:42;1.27;;;1.10;;
61741;SDS011;47650;49.848;9.620;2023-09-19T00:36:09;2.53;;;1.17;;
61741;SDS011;47650;49.848;9.620;2023-09-19T00:38:34;2.13;;;0.98;;
61741;SDS011;47650;49.848;9.620;2023-09-19T00:41:00;2.83;;;1.10;;
61741;SDS011;47650;49.848;9.620;2023-09-19T00:43:29;1.90;;;0.95;;
61741;SDS011;47650;49.848;9.620;2023-09-19T00:45:55;2.22;;;1.00;;
61741;SDS011;47650;49.848;9.620;2023-09-19T00:48:21;3.70;;;1.00;;
61741;SDS011;47650;49.848;9.620;2023-09-19T00:50:47;1.70;;;1.08;;
61741;SDS011;47650;49.848;9.620;2023-09-19T00:53:20;3.60;;;1.20;;
61741;SDS011;47650;49.848;9.620;2023-09-19T00:55:49;4.28;;;1.38;;
61741;SDS011;47650;49.848;9.620;2023-09-19T00:58:17;3.40;;;1.45;;
61741;SDS011;47650;49.848;9.620;2023-09-19T01:00:46;2.90;;;1.30;;
61741;SDS011;47650;49.848;9.620;2023-09-19T01:03:16;1.70;;;1.20;;
61741;SDS011;47650;49.848;9.620;2023-09-19T01:05:46;3.28;;;1.25;;
61741;SDS011;47650;49.848;9.620;2023-09-19T01:08:12;2.00;;;1.23;;
61741;SDS011;47650;49.848;9.620;2023-09-19T01:10:40;2.33;;;1.30;;
61741;SDS011;47650;49.848;9.620;2023-09-19T01:16:03;2.22;;;1.65;;
61741;SDS011;47650;49.848;9.620;2023-09-19T01:24:39;2.88;;;1.40;;
61741;SDS011;47650;49.848;9.620;2023-09-19T01:30:35;4.73;;;1.73;;
61741;SDS011;47650;49.848;9.620;2023-09-19T01:33:05;1.88;;;1.20;;
61741;SDS011;47650;49.848;9.620;2023-09-19T01:35:33;3.22;;;1.60;;
61741;SDS011;47650;49.848;9.620;2023-09-19T01:38:08;3.10;;;1.60;;
61741;SDS011;47650;49.848;9.620;2023-09-19T01:40:41;2.55;;;1.48;;
61741;SDS011;47650;49.848;9.620;2023-09-19T01:43:12;3.72;;;1.60;;
61741;SDS011;47650;49.848;9.620;2023-09-19T01:45:52;2.60;;;1.45;;
61741;SDS011;47650;49.848;9.620;2023-09-19T01:49:15;3.88;;;1.73;;
61741;SDS011;47650;49.848;9.620;2023-09-19T01:51:53;3.45;;;1.77;;
61741;SDS011;47650;49.848;9.620;2023-09-19T01:54:26;2.90;;;1.27;;
61741;SDS011;47650;49.848;9.620;2023-09-19T01:57:14;3.17;;;1.90;;
61741;SDS011;47650;49.848;9.620;2023-09-19T01:59:50;2.33;;;1.50;;
61741;SDS011;47650;49.848;9.620;2023-09-19T02:02:22;4.10;;;1.60;;
61741;SDS011;47650;49.848;9.620;2023-09-19T02:04:49;3.75;;;1.63;;
61741;SDS011;47650;49.848;9.620;2023-09-19T02:07:17;2.58;;;1.30;;
61741;SDS011;47650;49.848;9.620;2023-09-19T02:09:44;4.70;;;1.90;;
61741;SDS011;47650;49.848;9.620;2023-09-19T02:12:15;1.85;;;1.45;;
61741;SDS011;47650;49.848;9.620;2023-09-19T02:14:41;5.82;;;1.65;;
61741;SDS011;47650;49.848;9.620;2023-09-19T02:17:06;3.42;;;1.65;;
61741;SDS011;47650;49.848;9.620;2023-09-19T02:19:33;5.63;;;1.80;;
61741;SDS011;47650;49.848;9.620;2023-09-19T02:22:05;2.45;;;1.70;;
61741;SDS011;47650;49.848;9.620;2023-09-19T02:24:33;5.07;;;1.75;;
61741;SDS011;47650;49.848;9.620;2023-09-19T02:26:59;7.05;;;1.85;;
61741;SDS011;47650;49.848;9.620;2023-09-19T02:29:31;3.75;;;1.60;;
61741;SDS011;47650;49.848;9.620;2023-09-19T02:31:59;6.13;;;2.13;;
61741;SDS011;47650;49.848;9.620;2023-09-19T02:34:27;3.38;;;1.80;;
61741;SDS011;47650;49.848;9.620;2023-09-19T02:36:54;4.63;;;1.70;;
61741;SDS011;47650;49.848;9.620;2023-09-19T02:39:21;3.90;;;1.60;;
61741;SDS011;47650;49.848;9.620;2023-09-19T02:41:46;3.10;;;1.73;;
61741;SDS011;47650;49.848;9.620;2023-09-19T02:44:12;3.63;;;1.88;;
61741;SDS011;47650;49.848;9.620;2023-09-19T02:46:38;4.20;;;2.30;;
61741;SDS011;47650;49.848;9.620;2023-09-19T02:49:06;5.10;;;2.10;;
61741;SDS011;47650;49.848;9.620;2023-09-19T02:51:42;8.68;;;2.40;;
61741;SDS011;47650;49.848;9.620;2023-09-19T02:54:09;3.63;;;2.00;;
61741;SDS011;47650;49.848;9.620;2023-09-19T02:56:35;4.28;;;2.17;;
61741;SDS011;47650;49.848;9.620;2023-09-19T02:59:02;6.25;;;2.10;;
61741;SDS011;47650;49.848;9.620;2023-09-19T03:01:28;3.55;;;2.30;;
61741;SDS011;47650;49.848;9.620;2023-09-19T03:03:54;5.53;;;2.28;;
61741;SDS011;47650;49.848;9.620;2023-09-19T03:06:21;4.70;;;2.15;;
61741;SDS011;47650;49.848;9.620;2023-09-19T03:08:49;2.65;;;2.08;;
61741;SDS011;47650;49.848;9.620;2023-09-19T03:11:17;4.80;;;2.58;;
61741;SDS011;47650;49.848;9.620;2023-09-19T03:13:50;4.13;;;2.13;;
61741;SDS011;47650;49.848;9.620;2023-09-19T03:16:17;5.70;;;2.60;;
61741;SDS011;47650;49.848;9.620;2023-09-19T03:18:44;10.63;;;6.30;;
61741;SDS011;47650;49.848;9.620;2023-09-19T03:21:10;4.93;;;3.08;;
61741;SDS011;47650;49.848;9.620;2023-09-19T03:23:36;6.70;;;3.35;;
61741;SDS011;47650;49.848;9.620;2023-09-19T03:26:03;6.15;;;3.25;;
61741;SDS011;47650;49.848;9.620;2023-09-19T03:28:32;6.40;;;2.85;;
61741;SDS011;47650;49.848;9.620;2023-09-19T03:31:04;5.60;;;4.13;;
61741;SDS011;47650;49.848;9.620;2023-09-19T03:33:30;5.68;;;3.40;;
61741;SDS011;47650;49.848;9.620;2023-09-19T03:35:58;6.47;;;3.55;;
61741;SDS011;47650;49.848;9.620;2023-09-19T03:38:29;7.80;;;4.00;;
61741;SDS011;47650;49.848;9.620;2023-09-19T03:40:57;6.43;;;3.90;;
61741;SDS011;47650;49.848;9.620;2023-09-19T03:43:24;6.20;;;3.97;;
61741;SDS011;47650;49.848;9.620;2023-09-19T03:45:52;5.10;;;3.65;;
61741;SDS011;47650;49.848;9.620;2023-09-19T03:48:19;4.32;;;3.42;;
61741;SDS011;47650;49.848;9.620;2023-09-19T03:50:47;4.70;;;3.90;;
61741;SDS011;47650;49.848;9.620;2023-09-19T03:53:12;4.35;;;3.53;;
61741;SDS011;47650;49.848;9.620;2023-09-19T03:55:38;4.07;;;3.00;;
61741;SDS011;47650;49.848;9.620;2023-09-19T03:58:04;8.40;;;3.70;;
61741;SDS011;47650;49.848;9.620;2023-09-19T04:00:31;6.90;;;3.97;;
61741;SDS011;47650;49.848;9.620;2023-09-19T04:02:57;6.00;;;3.90;;
61741;SDS011;47650;49.848;9.620;2023-09-19T04:05:22;7.60;;;4.13;;
61741;SDS011;47650;49.848;9.620;2023-09-19T04:07:49;5.78;;;3.67;;
61741;SDS011;47650;49.848;9.620;2023-09-19T04:10:19;7.63;;;4.72;;
61741;SDS011;47650;49.848;9.620;2023-09-19T04:12:54;5.38;;;3.70;;
61741;SDS011;47650;49.848;9.620;2023-09-19T04:15:20;7.97;;;3.78;;
61741;SDS011;47650;49.848;9.620;2023-09-19T04:17:48;5.03;;;3.80;;
61741;SDS011;47650;49.848;9.620;2023-09-19T04:20:14;6.72;;;3.58;;
61741;SDS011;47650;49.848;9.620;2023-09-19T04:22:41;5.38;;;3.60;;
61741;SDS011;47650;49.848;9.620;2023-09-19T04:25:07;6.90;;;3.78;;
61741;SDS011;47650;49.848;9.620;2023-09-19T04:27:32;6.03;;;4.40;;
61741;SDS011;47650;49.848;9.620;2023-09-19T04:29:58;4.63;;;3.80;;
61741;SDS011;47650;49.848;9.620;2023-09-19T04:32:28;7.30;;;4.03;;
61741;SDS011;47650;49.848;9.620;2023-09-19T04:34:54;6.53;;;4.07;;
61741;SDS011;47650;49.848;9.620;2023-09-19T04:37:25;6.53;;;4.28;;
61741;SDS011;47650;49.848;9.620;2023-09-19T04:39:51;5.35;;;3.50;;
61741;SDS011;47650;49.848;9.620;2023-09-19T04:42:16;5.00;;;3.60;;
61741;SDS011;47650;49.848;9.620;2023-09-19T04:44:42;5.55;;;3.25;;
61741;SDS011;47650;49.848;9.620;2023-09-19T04:47:09;6.53;;;3.30;;
61741;SDS011;47650;49.848;9.620;2023-09-19T04:49:37;6.72;;;3.40;;
61741;SDS011;47650;49.848;9.620;2023-09-19T04:52:02;7.00;;;3.78;;
61741;SDS011;47650;49.848;9.620;2023-09-19T04:54:28;5.10;;;4.10;;
61741;SDS011;47650;49.848;9.620;2023-09-19T04:56:53;6.57;;;3.65;;
61741;SDS011;47650;49.848;9.620;2023-09-19T04:59:18;5.25;;;2.95;;
61741;SDS011;47650;49.848;9.620;2023-09-19T05:01:43;3.40;;;2.72;;
61741;SDS011;47650;49.848;9.620;2023-09-19T05:04:10;6.82;;;3.60;;
61741;SDS011;47650;49.848;9.620;2023-09-19T05:06:48;4.68;;;2.63;;
61741;SDS011;47650;49.848;9.620;2023-09-19T05:09:18;4.63;;;3.10;;
61741;SDS011;47650;49.848;9.620;2023-09-19T05:11:45;5.00;;;2.70;;
61741;SDS011;47650;49.848;9.620;2023-09-19T05:14:10;5.82;;;2.80;;
61741;SDS011;47650;49.848;9.620;2023-09-19T05:16:39;7.25;;;3.10;;
61741;SDS011;47650;49.848;9.620;2023-09-19T05:19:06;4.45;;;2.80;;
61741;SDS011;47650;49.848;9.620;2023-09-19T05:21:32;3.17;;;2.40;;
61741;SDS011;47650;49.848;9.620;2023-09-19T05:23:58;4.28;;;2.45;;
61741;SDS011;47650;49.848;9.620;2023-09-19T05:26:25;6.07;;;3.00;;
61741;SDS011;47650;49.848;9.620;2023-09-19T05:28:51;4.35;;;2.67;;
61741;SDS011;47650;49.848;9.620;2023-09-19T05:31:17;5.15;;;2.72;;
61741;SDS011;47650;49.848;9.620;2023-09-19T05:33:45;5.18;;;2.50;;
61741;SDS011;47650;49.848;9.620;2023-09-19T05:36:10;5.43;;;2.97;;
61741;SDS011;47650;49.848;9.620;2023-09-19T05:38:38;6.05;;;2.60;;
61741;SDS011;47650;49.848;9.620;2023-09-19T05:41:08;3.92;;;2.55;;
61741;SDS011;47650;49.848;9.620;2023-09-19T05:43:38;4.68;;;2.75;;
61741;SDS011;47650;49.848;9.620;2023-09-19T05:46:06;7.90;;;3.25;;
61741;SDS011;47650;49.848;9.620;2023-09-19T05:48:33;5.18;;;2.55;;
61741;SDS011;47650;49.848;9.620;2023-09-19T05:50:58;5.30;;;2.70;;
61741;SDS011;47650;49.848;9.620;2023-09-19T05:53:24;4.60;;;2.70;;
61741;SDS011;47650;49.848;9.620;2023-09-19T05:56:00;3.80;;;2.60;;
61741;SDS011;47650;49.848;9.620;2023-09-19T05:58:26;5.18;;;3.08;;
61741;SDS011;47650;49.848;9.620;2023-09-19T06:00:56;4.53;;;2.72;;
61741;SDS011;47650;49.848;9.620;2023-09-19T06:03:22;5.25;;;3.10;;
61741;SDS011;47650;49.848;9.620;2023-09-19T06:05:50;5.43;;;2.70;;
61741;SDS011;47650;49.848;9.620;2023-09-19T06:08:17;7.00;;;2.67;;
61741;SDS011;47650;49.848;9.620;2023-09-19T06:10:42;5.60;;;2.92;;
61741;SDS011;47650;49.848;9.620;2023-09-19T06:13:08;5.82;;;2.90;;
61741;SDS011;47650;49.848;9.620;2023-09-19T06:15:35;2.95;;;2.65;;
61741;SDS011;47650;49.848;9.620;2023-09-19T06:18:02;3.95;;;2.70;;
61741;SDS011;47650;49.848;9.620;2023-09-19T06:20:30;4.53;;;2.70;;
61741;SDS011;47650;49.848;9.620;2023-09-19T06:22:57;4.30;;;3.10;;
61741;SDS011;47650;49.848;9.620;2023-09-19T06:25:22;5.60;;;3.10;;
61741;SDS011;47650;49.848;9.620;2023-09-19T06:27:51;4.35;;;2.65;;
61741;SDS011;47650;49.848;9.620;2023-09-19T06:30:18;3.80;;;2.75;;
61741;SDS011;47650;49.848;9.620;2023-09-19T06:32:45;4.78;;;2.60;;
61741;SDS011;47650;49.848;9.620;2023-09-19T06:35:15;4.03;;;2.45;;
61741;SDS011;47650;49.848;9.620;2023-09-19T06:37:41;3.97;;;2.67;;
61741;SDS011;47650;49.848;9.620;2023-09-19T06:40:11;4.63;;;2.90;;
61741;SDS011;47650;49.848;9.620;2023-09-19T06:42:47;8.32;;;2.95;;
61741;SDS011;47650;49.848;9.620;2023-09-19T06:45:15;8.10;;;3.83;;
61741;SDS011;47650;49.848;9.620;2023-09-19T06:47:46;6.32;;;2.78;;
61741;SDS011;47650;49.848;9.620;2023-09-19T06:50:19;7.57;;;3.15;;
61741;SDS011;47650;49.848;9.620;2023-09-19T06:52:47;4.03;;;2.58;;
61741;SDS011;47650;49.848;9.620;2023-09-19T06:55:15;6.72;;;2.97;;
61741;SDS011;47650;49.848;9.620;2023-09-19T06:57:41;3.75;;;2.80;;
61741;SDS011;47650;49.848;9.620;2023-09-19T07:00:08;7.10;;;3.42;;
61741;SDS011;47650;49.848;9.620;2023-09-19T07:02:40;6.25;;;2.70;;
61741;SDS011;47650;49.848;9.620;2023-09-19T07:05:06;5.60;;;2.75;;
61741;SDS011;47650;49.848;9.620;2023-09-19T07:07:33;6.38;;;2.80;;
61741;SDS011;47650;49.848;9.620;2023-09-19T07:10:00;5.30;;;2.50;;
61741;SDS011;47650;49.848;9.620;2023-09-19T07:12:36;4.95;;;2.50;;
61741;SDS011;47650;49.848;9.620;2023-09-19T07:15:02;8.88;;;3.00;;
61741;SDS011;47650;49.848;9.620;2023-09-19T07:17:31;9.77;;;3.13;;
61741;SDS011;47650;49.848;9.620;2023-09-19T07:19:58;5.05;;;2.42;;
61741;SDS011;47650;49.848;9.620;2023-09-19T07:22:24;4.15;;;2.55;;
61741;SDS011;47650;49.848;9.620;2023-09-19T07:24:50;3.05;;;2.15;;
61741;SDS011;47650;49.848;9.620;2023-09-19T07:27:16;6.70;;;2.70;;
61741;SDS011;47650;49.848;9.620;2023-09-19T07:29:41;6.38;;;2.80;;
61741;SDS011;47650;49.848;9.620;2023-09-19T07:32:11;3.63;;;2.05;;
61741;SDS011;47650;49.848;9.620;2023-09-19T07:34:36;4.28;;;2.20;;
61741;SDS011;47650;49.848;9.620;2023-09-19T07:37:05;5.63;;;2.20;;
61741;SDS011;47650;49.848;9.620;2023-09-19T07:39:31;8.52;;;3.20;;
61741;SDS011;47650;49.848;9.620;2023-09-19T07:41:56;6.50;;;2.72;;
61741;SDS011;47650;49.848;9.620;2023-09-19T07:44:23;4.93;;;2.55;;
61741;SDS011;47650;49.848;9.620;2023-09-19T07:46:50;4.78;;;2.38;;
61741;SDS011;47650;49.848;9.620;2023-09-19T07:49:18;5.45;;;2.50;;
61741;SDS011;47650;49.848;9.620;2023-09-19T07:51:44;11.85;;;2.90;;
61741;SDS011;47650;49.848;9.620;2023-09-19T07:54:11;4.57;;;2.10;;
61741;SDS011;47650;49.848;9.620;2023-09-19T07:56:38;3.25;;;2.13;;
61741;SDS011;47650;49.848;9.620;2023-09-19T07:59:05;5.38;;;2.67;;
61741;SDS011;47650;49.848;9.620;2023-09-19T08:01:30;3.85;;;2.22;;
61741;SDS011;47650;49.848;9.620;2023-09-19T08:03:57;2.95;;;1.90;;
61741;SDS011;47650;49.848;9.620;2023-09-19T08:06:24;5.95;;;2.40;;
61741;SDS011;47650;49.848;9.620;2023-09-19T08:08:54;4.63;;;2.22;;
61741;SDS011;47650;49.848;9.620;2023-09-19T08:11:21;3.80;;;1.98;;
61741;SDS011;47650;49.848;9.620;2023-09-19T08:13:49;5.03;;;2.13;;
61741;SDS011;47650;49.848;9.620;2023-09-19T08:16:15;5.25;;;2.13;;
61741;SDS011;47650;49.848;9.620;2023-09-19T08:18:47;4.93;;;2.25;;
61741;SDS011;47650;49.848;9.620;2023-09-19T08:21:13;5.95;;;2.13;;
61741;SDS011;47650;49.848;9.620;2023-09-19T08:23:39;3.42;;;2.03;;
61741;SDS011;47650;49.848;9.620;2023-09-19T08:26:05;3.80;;;1.92;;
61741;SDS011;47650;49.848;9.620;2023-09-19T08:28:33;4.53;;;2.35;;
61741;SDS011;47650;49.848;9.620;2023-09-19T08:31:05;5.88;;;2.10;;
61741;SDS011;47650;49.848;9.620;2023-09-19T08:33:34;4.55;;;2.55;;
61741;SDS011;47650;49.848;9.620;2023-09-19T08:36:01;5.68;;;2.17;;
61741;SDS011;47650;49.848;9.620;2023-09-19T08:38:31;5.25;;;2.60;;
61741;SDS011;47650;49.848;9.620;2023-09-19T08:40:58;5.65;;;2.67;;
61741;SDS011;47650;49.848;9.620;2023-09-19T08:43:30;5.43;;;2.00;;
61741;SDS011;47650;49.848;9.620;2023-09-19T08:48:31;4.53;;;2.50;;
61741;SDS011;47650;49.848;9.620;2023-09-19T08:53:41;7.15;;;2.40;;
61741;SDS011;47650;49.848;9.620;2023-09-19T08:56:08;5.05;;;2.25;;
61741;SDS011;47650;49.848;9.620;2023-09-19T08:58:39;6.00;;;2.80;;
61741;SDS011;47650;49.848;9.620;2023-09-19T09:03:41;5.97;;;2.75;;
61741;SDS011;47650;49.848;9.620;2023-09-19T09:06:11;3.42;;;2.40;;
61741;SDS011;47650;49.848;9.620;2023-09-19T09:08:43;4.47;;;1.80;;
61741;SDS011;47650;49.848;9.620;2023-09-19T09:11:09;4.78;;;2.30;;
61741;SDS011;47650;49.848;9.620;2023-09-19T09:13:36;7.05;;;2.30;;
61741;SDS011;47650;49.848;9.620;2023-09-19T09:16:04;7.78;;;2.40;;
61741;SDS011;47650;49.848;9.620;2023-09-19T09:18:29;4.38;;;2.83;;
61741;SDS011;47650;49.848;9.620;2023-09-19T09:20:56;3.70;;;2.30;;
61741;SDS011;47650;49.848;9.620;2023-09-19T09:23:21;6.07;;;2.80;;
61741;SDS011;47650;49.848;9.620;2023-09-19T09:25:53;6.35;;;2.90;;
61741;SDS011;47650;49.848;9.620;2023-09-19T09:28:24;3.22;;;2.58;;
61741;SDS011;47650;49.848;9.620;2023-09-19T09:30:52;8.07;;;2.85;;
61741;SDS011;47650;49.848;9.620;2023-09-19T09:33:18;4.80;;;3.30;;
61741;SDS011;47650;49.848;9.620;2023-09-19T09:35:50;7.95;;;3.13;;
61741;SDS011;47650;49.848;9.620;2023-09-19T09:38:23;4.70;;;2.05;;
61741;SDS011;47650;49.848;9.620;2023-09-19T09:40:55;5.78;;;3.35;;
61741;SDS011;47650;49.848;9.620;2023-09-19T09:43:35;4.90;;;2.80;;
61741;SDS011;47650;49.848;9.620;2023-09-19T09:51:40;8.60;;;3.28;;
61741;SDS011;47650;49.848;9.620;2023-09-19T09:56:57;3.72;;;2.75;;
61741;SDS011;47650;49.848;9.620;2023-09-19T09:59:43;4.95;;;3.05;;
61741;SDS011;47650;49.848;9.620;2023-09-19T10:02:19;3.90;;;2.83;;
61741;SDS011;47650;49.848;9.620;2023-09-19T10:04:51;6.00;;;3.20;;
61741;SDS011;47650;49.848;9.620;2023-09-19T10:07:38;3.95;;;2.70;;
61741;SDS011;47650;49.848;9.620;2023-09-19T10:10:06;4.20;;;3.05;;
61741;SDS011;47650;49.848;9.620;2023-09-19T10:12:44;4.63;;;2.55;;
61741;SDS011;47650;49.848;9.620;2023-09-19T10:15:11;5.10;;;3.42;;
61741;SDS011;47650;49.848;9.620;2023-09-19T10:17:42;3.90;;;2.55;;
61741;SDS011;47650;49.848;9.620;2023-09-19T10:20:14;3.60;;;2.83;;
61741;SDS011;47650;49.848;9.620;2023-09-19T10:23:04;5.35;;;2.80;;
61741;SDS011;47650;49.848;9.620;2023-09-19T10:25:34;5.85;;;2.92;;
61741;SDS011;47650;49.848;9.620;2023-09-19T10:28:02;3.17;;;2.25;;
61741;SDS011;47650;49.848;9.620;2023-09-19T10:30:31;4.35;;;2.50;;
61741;SDS011;47650;49.848;9.620;2023-09-19T10:33:02;5.10;;;2.45;;
61741;SDS011;47650;49.848;9.620;2023-09-19T10:35:32;3.97;;;2.70;;
61741;SDS011;47650;49.848;9.620;2023-09-19T10:37:59;4.45;;;2.53;;
61741;SDS011;47650;49.848;9.620;2023-09-19T10:40:26;3.80;;;1.80;;
61741;SDS011;47650;49.848;9.620;2023-09-19T10:43:00;4.72;;;3.00;;
61741;SDS011;47650;49.848;9.620;2023-09-19T10:45:32;2.75;;;1.98;;
61741;SDS011;47650;49.848;9.620;2023-09-19T10:48:03;3.45;;;2.42;;
61741;SDS011;47650;49.848;9.620;2023-09-19T10:50:33;5.50;;;2.53;;
61741;SDS011;47650;49.848;9.620;2023-09-19T10:53:14;4.70;;;2.30;;
61741;SDS011;47650;49.848;9.620;2023-09-19T10:55:51;4.22;;;2.58;;
61741;SDS011;47650;49.848;9.620;2023-09-19T10:58:24;4.00;;;2.30;;
61741;SDS011;47650;49.848;9.620;2023-09-19T11:00:56;3.72;;;2.13;;
61741;SDS011;47650;49.848;9.620;2023-09-19T11:03:38;3.72;;;2.38;;
61741;SDS011;47650;49.848;9.620;2023-09-19T11:06:09;4.30;;;2.30;;
61741;SDS011;47650;49.848;9.620;2023-09-19T11:30:32;3.67;;;2.30;;
61741;SDS011;47650;49.848;9.620;2023-09-19T11:43:51;7.07;;;2.13;;
61741;SDS011;47650;49.848;9.620;2023-09-19T11:46:24;2.28;;;1.60;;
61741;SDS011;47650;49.848;9.620;2023-09-19T11:48:50;4.05;;;2.33;;
61741;SDS011;47650;49.848;9.620;2023-09-19T11:51:18;4.50;;;1.98;;
61741;SDS011;47650;49.848;9.620;2023-09-19T11:53:49;4.78;;;2.22;;
61741;SDS011;47650;49.848;9.620;2023-09-19T11:56:18;3.28;;;2.20;;
61741;SDS011;47650;49.848;9.620;2023-09-19T11:58:51;3.88;;;2.05;;
61741;SDS011;47650;49.848;9.620;2023-09-19T12:01:21;3.17;;;1.88;;
61741;SDS011;47650;49.848;9.620;2023-09-19T12:03:58;2.92;;;2.20;;
61741;SDS011;47650;49.848;9.620;2023-09-19T12:06:25;3.42;;;2.15;;
61741;SDS011;47650;49.848;9.620;2023-09-19T12:08:52;2.92;;;2.00;;
61741;SDS011;47650;49.848;9.620;2023-09-19T12:11:20;3.95;;;2.10;;
61741;SDS011;47650;49.848;9.620;2023-09-19T12:13:48;4.25;;;2.13;;
61741;SDS011;47650;49.848;9.620;2023-09-19T12:16:19;5.80;;;2.67;;
61741;SDS011;47650;49.848;9.620;2023-09-19T12:18:47;5.18;;;2.47;;
61741;SDS011;47650;49.848;9.620;2023-09-19T12:21:53;4.32;;;1.98;;
61741;SDS011;47650;49.848;9.620;2023-09-19T12:24:15;3.70;;;2.10;;
61741;SDS011;47650;49.848;9.620;2023-09-19T12:26:44;3.88;;;2.00;;
61741;SDS011;47650;49.848;9.620;2023-09-19T12:29:14;2.15;;;1.60;;
61741;SDS011;47650;49.848;9.620;2023-09-19T12:31:50;4.65;;;2.38;;
61741;SDS011;47650;49.848;9.620;2023-09-19T12:34:23;3.33;;;1.70;;
61741;SDS011;47650;49.848;9.620;2023-09-19T12:39:49;3.20;;;2.10;;
61741;SDS011;47650;49.848;9.620;2023-09-19T12:42:18;3.97;;;1.95;;
61741;SDS011;47650;49.848;9.620;2023-09-19T12:44:48;4.10;;;2.10;;
61741;SDS011;47650;49.848;9.620;2023-09-19T12:47:21;4.50;;;2.25;;
61741;SDS011;47650;49.848;9.620;2023-09-19T12:50:13;3.90;;;2.03;;
61741;SDS011;47650;49.848;9.620;2023-09-19T12:52:43;3.95;;;2.38;;
61741;SDS011;47650;49.848;9.620;2023-09-19T12:55:27;2.83;;;2.20;;
61741;SDS011;47650;49.848;9.620;2023-09-19T13:00:33;6.37;;;2.30;;
61741;SDS011;47650;49.848;9.620;2023-09-19T13:03:19;4.03;;;2.00;;
61741;SDS011;47650;49.848;9.620;2023-09-19T13:05:52;4.72;;;1.98;;
61741;SDS011;47650;49.848;9.620;2023-09-19T13:08:22;3.95;;;1.60;;
61741;SDS011;47650;49.848;9.620;2023-09-19T13:16:30;3.53;;;1.92;;
61741;SDS011;47650;49.848;9.620;2023-09-19T13:18:56;2.63;;;1.70;;
61741;SDS011;47650;49.848;9.620;2023-09-19T13:21:32;5.05;;;1.98;;
61741;SDS011;47650;49.848;9.620;2023-09-19T13:24:18;4.47;;;2.10;;
61741;SDS011;47650;49.848;9.620;2023-09-19T13:26:44;4.07;;;1.92;;
61741;SDS011;47650;49.848;9.620;2023-09-19T13:29:09;3.40;;;2.10;;
61741;SDS011;47650;49.848;9.620;2023-09-19T13:31:34;3.17;;;1.70;;
61741;SDS011;47650;49.848;9.620;2023-09-19T13:34:01;6.68;;;2.30;;
61741;SDS011;47650;49.848;9.620;2023-09-19T13:36:26;2.38;;;1.65;;
61741;SDS011;47650;49.848;9.620;2023-09-19T13:38:52;4.90;;;2.17;;
61741;SDS011;47650;49.848;9.620;2023-09-19T13:41:18;12.00;;;2.60;;
61741;SDS011;47650;49.848;9.620;2023-09-19T13:43:46;3.78;;;2.10;;
61741;SDS011;47650;49.848;9.620;2023-09-19T13:46:13;3.42;;;1.80;;
61741;SDS011;47650;49.848;9.620;2023-09-19T13:48:41;3.55;;;1.83;;
61741;SDS011;47650;49.848;9.620;2023-09-19T13:51:06;3.75;;;1.67;;
61741;SDS011;47650;49.848;9.620;2023-09-19T13:53:32;5.35;;;2.08;;
61741;SDS011;47650;49.848;9.620;2023-09-19T13:55:58;3.08;;;1.77;;
61741;SDS011;47650;49.848;9.620;2023-09-19T13:58:24;3.05;;;1.75;;
61741;SDS011;47650;49.848;9.620;2023-09-19T14:00:51;3.10;;;2.13;;
61741;SDS011;47650;49.848;9.620;2023-09-19T14:03:20;2.65;;;1.63;;
61741;SDS011;47650;49.848;9.620;2023-09-19T14:05:46;3.28;;;1.70;;
61741;SDS011;47650;49.848;9.620;2023-09-19T14:08:12;2.88;;;1.73;;
61741;SDS011;47650;49.848;9.620;2023-09-19T14:10:38;3.03;;;1.80;;
61741;SDS011;47650;49.848;9.620;2023-09-19T14:13:05;3.47;;;1.70;;
61741;SDS011;47650;49.848;9.620;2023-09-19T14:15:30;2.90;;;1.88;;
61741;SDS011;47650;49.848;9.620;2023-09-19T14:17:58;3.58;;;1.75;;
61741;SDS011;47650;49.848;9.620;2023-09-19T14:20:27;4.03;;;1.88;;
61741;SDS011;47650;49.848;9.620;2023-09-19T14:22:53;4.45;;;2.05;;
61741;SDS011;47650;49.848;9.620;2023-09-19T14:25:20;3.80;;;1.77;;
61741;SDS011;47650;49.848;9.620;2023-09-19T14:27:46;2.67;;;1.67;;
61741;SDS011;47650;49.848;9.620;2023-09-19T14:30:14;6.50;;;1.85;;
61741;SDS011;47650;49.848;9.620;2023-09-19T14:32:41;4.43;;;1.95;;
61741;SDS011;47650;49.848;9.620;2023-09-19T14:35:07;4.95;;;1.80;;
61741;SDS011;47650;49.848;9.620;2023-09-19T14:37:39;2.97;;;1.60;;
61741;SDS011;47650;49.848;9.620;2023-09-19T14:40:06;3.30;;;1.77;;
61741;SDS011;47650;49.848;9.620;2023-09-19T14:42:34;4.07;;;1.70;;
61741;SDS011;47650;49.848;9.620;2023-09-19T14:45:02;2.55;;;1.70;;
61741;SDS011;47650;49.848;9.620;2023-09-19T14:47:30;3.25;;;2.00;;
61741;SDS011;47650;49.848;9.620;2023-09-19T14:49:58;3.97;;;1.95;;
61741;SDS011;47650;49.848;9.620;2023-09-19T14:52:25;3.92;;;2.00;;
61741;SDS011;47650;49.848;9.620;2023-09-19T14:54:53;3.42;;;1.80;;
61741;SDS011;47650;49.848;9.620;2023-09-19T14:57:18;4.72;;;1.40;;
61741;SDS011;47650;49.848;9.620;2023-09-19T14:59:45;2.67;;;1.60;;
61741;SDS011;47650;49.848;9.620;2023-09-19T15:02:10;3.20;;;1.50;;
61741;SDS011;47650;49.848;9.620;2023-09-19T15:04:36;5.88;;;1.92;;
61741;SDS011;47650;49.848;9.620;2023-09-19T15:07:05;4.15;;;1.92;;
61741;SDS011;47650;49.848;9.620;2023-09-19T15:09:31;4.22;;;2.00;;
61741;SDS011;47650;49.848;9.620;2023-09-19T15:11:58;2.70;;;1.58;;
61741;SDS011;47650;49.848;9.620;2023-09-19T15:14:24;3.33;;;1.60;;
61741;SDS011;47650;49.848;9.620;2023-09-19T15:16:54;5.20;;;1.85;;
61741;SDS011;47650;49.848;9.620;2023-09-19T15:19:20;5.18;;;1.92;;
61741;SDS011;47650;49.848;9.620;2023-09-19T15:21:47;4.70;;;1.70;;
61741;SDS011;47650;49.848;9.620;2023-09-19T15:24:13;4.68;;;1.85;;
61741;SDS011;47650;49.848;9.620;2023-09-19T15:26:42;3.88;;;1.95;;
61741;SDS011;47650;49.848;9.620;2023-09-19T15:29:09;3.92;;;1.80;;
61741;SDS011;47650;49.848;9.620;2023-09-19T15:31:36;3.45;;;1.70;;
61741;SDS011;47650;49.848;9.620;2023-09-19T15:34:04;1.65;;;1.48;;
61741;SDS011;47650;49.848;9.620;2023-09-19T15:36:33;4.60;;;1.73;;
61741;SDS011;47650;49.848;9.620;2023-09-19T15:39:18;4.40;;;1.73;;
61741;SDS011;47650;49.848;9.620;2023-09-19T15:41:54;2.85;;;1.30;;
61741;SDS011;47650;49.848;9.620;2023-09-19T15:44:19;4.93;;;1.80;;
61741;SDS011;47650;49.848;9.620;2023-09-19T15:46:45;4.47;;;1.77;;
61741;SDS011;47650;49.848;9.620;2023-09-19T15:49:12;3.95;;;2.08;;
61741;SDS011;47650;49.848;9.620;2023-09-19T15:51:40;4.45;;;1.67;;
61741;SDS011;47650;49.848;9.620;2023-09-19T15:54:12;3.78;;;1.73;;
61741;SDS011;47650;49.848;9.620;2023-09-19T15:56:41;4.43;;;1.80;;
61741;SDS011;47650;49.848;9.620;2023-09-19T15:59:11;3.35;;;1.55;;
61741;SDS011;47650;49.848;9.620;2023-09-19T16:01:43;3.92;;;1.85;;
61741;SDS011;47650;49.848;9.620;2023-09-19T16:04:09;5.60;;;1.77;;
61741;SDS011;47650;49.848;9.620;2023-09-19T16:06:37;3.20;;;1.90;;
61741;SDS011;47650;49.848;9.620;2023-09-19T16:09:03;2.72;;;1.38;;
61741;SDS011;47650;49.848;9.620;2023-09-19T16:11:33;3.53;;;1.90;;